createdAt,value
2018-09-11T00:01:48.724Z,17.93
2018-09-11T00:04:15.963Z,17.94
2018-09-11T00:06:43.261Z,17.96
2018-09-11T00:09:12.268Z,17.98
2018-09-11T00:11:39.762Z,17.98
2018-09-11T00:14:07.010Z,17.93
2018-09-11T00:16:36.290Z,17.93
2018-09-11T00:21:53.692Z,17.87
2018-09-11T00:24:20.944Z,17.87
2018-09-11T00:26:49.059Z,17.86
2018-09-11T00:29:16.311Z,17.82
2018-09-11T00:31:43.595Z,17.78
2018-09-11T00:34:10.920Z,17.75
2018-09-11T00:36:38.248Z,17.65
2018-09-11T00:39:06.002Z,17.54
2018-09-11T00:41:33.331Z,17.52
2018-09-11T00:44:00.580Z,17.44
2018-09-11T00:46:27.839Z,17.36
2018-09-11T00:48:55.067Z,17.26
2018-09-11T00:51:29.034Z,17.17
2018-09-11T00:53:56.258Z,17.11
2018-09-11T00:56:23.513Z,17.11
2018-09-11T00:58:51.083Z,17.08
2018-09-11T01:01:18.344Z,17.06
2018-09-11T01:03:45.603Z,17.06
2018-09-11T01:06:13.191Z,17.06
2018-09-11T01:08:42.451Z,17.07
2018-09-11T01:11:10.033Z,17.03
2018-09-11T01:13:37.462Z,17.02
2018-09-11T01:16:05.562Z,17.03
2018-09-11T01:18:32.803Z,17.03
2018-09-11T01:21:00.071Z,17.02
2018-09-11T01:23:27.315Z,16.99
2018-09-11T01:25:54.588Z,16.99
2018-09-11T01:28:21.832Z,16.97
2018-09-11T01:30:49.120Z,16.98
2018-09-11T01:33:16.354Z,16.97
2018-09-11T01:35:43.604Z,16.90
2018-09-11T01:38:10.871Z,16.88
2018-09-11T01:40:38.111Z,16.85
2018-09-11T01:43:05.460Z,16.84
2018-09-11T01:45:32.713Z,16.78
2018-09-11T01:47:59.983Z,16.75
2018-09-11T01:50:27.195Z,16.74
2018-09-11T01:52:54.472Z,16.70
2018-09-11T01:55:21.708Z,16.65
2018-09-11T01:57:48.980Z,16.60
2018-09-11T02:00:21.878Z,16.51
2018-09-11T02:02:58.890Z,16.47
2018-09-11T02:05:26.157Z,16.41
2018-09-11T02:07:53.447Z,16.35
2018-09-11T02:10:20.688Z,16.34
2018-09-11T02:12:47.946Z,16.26
2018-09-11T02:15:15.272Z,16.20
2018-09-11T02:17:42.594Z,16.20
2018-09-11T02:20:09.912Z,16.19
2018-09-11T02:22:37.182Z,16.14
2018-09-11T02:25:04.789Z,16.09
2018-09-11T02:27:32.092Z,16.06
2018-09-11T02:29:59.326Z,16.05
2018-09-11T02:32:26.602Z,16.01
2018-09-11T02:34:53.835Z,15.96
2018-09-11T02:37:21.105Z,15.92
2018-09-11T02:39:48.358Z,15.90
2018-09-11T02:42:15.619Z,15.85
2018-09-11T02:44:42.846Z,15.84
2018-09-11T02:47:10.634Z,15.83
2018-09-11T02:49:37.880Z,15.74
2018-09-11T02:52:05.566Z,15.70
2018-09-11T02:54:32.822Z,15.69
2018-09-11T02:57:01.839Z,15.69
2018-09-11T02:59:29.073Z,15.66
2018-09-11T03:01:56.342Z,15.66
2018-09-11T03:04:23.625Z,15.59
2018-09-11T03:06:50.860Z,15.58
2018-09-11T03:09:18.599Z,15.60
2018-09-11T03:11:45.891Z,15.61
2018-09-11T03:14:13.155Z,15.63
2018-09-11T03:16:40.404Z,15.62
2018-09-11T03:19:09.880Z,15.64
2018-09-11T03:21:38.134Z,15.72
2018-09-11T03:24:06.275Z,15.78
2018-09-11T03:26:33.567Z,15.87
2018-09-11T03:29:00.891Z,15.93
2018-09-11T03:31:28.130Z,16.00
2018-09-11T03:36:29.378Z,16.11
2018-09-11T03:38:56.640Z,16.13
2018-09-11T03:41:23.928Z,16.20
2018-09-11T03:43:51.164Z,16.24
2018-09-11T03:46:18.408Z,16.32
2018-09-11T03:48:45.684Z,16.37
2018-09-11T03:51:12.972Z,16.37
2018-09-11T03:53:40.231Z,16.37
2018-09-11T03:56:07.461Z,16.38
2018-09-11T03:58:34.720Z,16.37
2018-09-11T04:01:02.003Z,16.40
2018-09-11T04:03:29.278Z,16.42
2018-09-11T04:05:56.531Z,16.41
2018-09-11T04:08:23.791Z,16.39
2018-09-11T04:10:51.171Z,16.36
2018-09-11T04:13:18.461Z,16.33
2018-09-11T04:15:45.703Z,16.25
2018-09-11T04:18:12.956Z,16.22
2018-09-11T04:20:40.232Z,16.17
2018-09-11T04:23:07.618Z,16.11
2018-09-11T04:25:34.912Z,16.08
2018-09-11T04:28:02.268Z,16.05
2018-09-11T04:30:29.663Z,15.97
2018-09-11T04:32:57.028Z,15.90
2018-09-11T04:35:24.373Z,15.90
2018-09-11T04:37:51.914Z,15.84
2018-09-11T04:40:19.419Z,15.82
2018-09-11T04:42:46.852Z,15.80
2018-09-11T04:45:14.299Z,15.82
2018-09-11T04:47:41.660Z,15.88
2018-09-11T04:50:09.760Z,15.95
2018-09-11T04:52:37.186Z,16.03
2018-09-11T04:55:05.151Z,16.06
2018-09-11T04:57:32.564Z,16.03
2018-09-11T04:59:59.945Z,16.06
2018-09-11T05:02:27.345Z,15.96
2018-09-11T05:07:46.906Z,15.93
2018-09-11T05:10:14.750Z,15.97
2018-09-11T05:12:42.120Z,15.94
2018-09-11T05:15:09.631Z,16.03
2018-09-11T05:17:36.985Z,16.03
2018-09-11T05:20:04.423Z,16.05
2018-09-11T05:22:32.563Z,16.06
2018-09-11T05:24:59.895Z,16.08
2018-09-11T05:27:27.468Z,16.13
2018-09-11T05:29:54.909Z,16.17
2018-09-11T05:32:22.331Z,16.23
2018-09-11T05:34:49.704Z,16.33
2018-09-11T05:37:17.715Z,16.41
2018-09-11T05:39:45.118Z,16.56
2018-09-11T05:42:13.507Z,16.70
2018-09-11T05:44:40.857Z,16.94
2018-09-11T05:47:08.366Z,17.18
2018-09-11T05:49:35.694Z,17.41
2018-09-11T05:52:04.427Z,17.54
2018-09-11T05:54:32.513Z,17.72
2018-09-11T05:57:00.782Z,17.85
2018-09-11T05:59:28.163Z,17.97
2018-09-11T06:01:55.657Z,18.14
2018-09-11T06:04:23.007Z,18.23
2018-09-11T06:06:50.377Z,18.36
2018-09-11T06:09:17.767Z,18.47
2018-09-11T06:11:45.107Z,18.56
2018-09-11T06:14:12.448Z,18.71
2018-09-11T06:16:39.824Z,18.80
2018-09-11T06:19:07.169Z,18.86
2018-09-11T06:21:34.511Z,18.90
2018-09-11T06:24:01.855Z,18.88
2018-09-11T06:26:29.194Z,18.93
2018-09-11T06:28:57.072Z,19.04
2018-09-11T06:31:42.932Z,19.14
2018-09-11T06:34:10.271Z,19.23
2018-09-11T06:36:37.928Z,19.36
2018-09-11T06:39:06.865Z,19.28
2018-09-11T06:41:34.176Z,19.41
2018-09-11T06:44:01.591Z,19.62
2018-09-11T06:46:28.990Z,19.77
2018-09-11T06:48:56.341Z,19.70
2018-09-11T06:51:23.942Z,20.02
2018-09-11T06:53:51.286Z,20.13
2018-09-11T06:56:19.375Z,20.07
2018-09-11T06:58:46.811Z,20.23
2018-09-11T07:01:14.689Z,20.28
2018-09-11T07:03:42.140Z,20.47
2018-09-11T07:06:09.440Z,20.45
2018-09-11T07:08:36.819Z,20.55
2018-09-11T07:11:04.108Z,20.61
2018-09-11T07:13:31.412Z,20.54
2018-09-11T07:15:58.739Z,20.53
2018-09-11T07:18:26.075Z,20.58
2018-09-11T07:20:53.412Z,20.81
2018-09-11T07:23:20.789Z,20.99
2018-09-11T07:25:48.131Z,21.13
2018-09-11T07:28:15.603Z,21.40
2018-09-11T07:30:42.937Z,21.60
2018-09-11T07:33:10.227Z,21.64
2018-09-11T07:35:37.551Z,21.98
2018-09-11T07:38:04.942Z,22.05
2018-09-11T07:40:32.338Z,22.36
2018-09-11T07:43:00.453Z,22.79
2018-09-11T07:45:27.831Z,22.59
2018-09-11T07:47:55.181Z,22.77
2018-09-11T07:50:22.538Z,22.72
2018-09-11T07:52:51.977Z,22.85
2018-09-11T07:55:19.309Z,23.12
2018-09-11T07:57:46.696Z,23.31
2018-09-11T08:00:14.004Z,23.32
2018-09-11T08:02:41.293Z,23.09
2018-09-11T08:05:08.723Z,23.32
2018-09-11T08:07:36.131Z,23.46
2018-09-11T08:10:03.541Z,23.83
2018-09-11T08:12:30.950Z,23.94
2018-09-11T08:14:58.268Z,24.20
2018-09-11T08:17:26.375Z,23.91
2018-09-11T08:19:53.645Z,23.76
2018-09-11T08:22:21.037Z,23.80
2018-09-11T08:24:48.396Z,24.12
2018-09-11T08:27:15.772Z,23.92
2018-09-11T08:29:43.096Z,23.63
2018-09-11T08:32:10.412Z,24.02
2018-09-11T08:34:37.770Z,24.01
2018-09-11T08:37:05.118Z,24.08
2018-09-11T08:39:33.040Z,24.97
2018-09-11T08:42:00.408Z,24.78
2018-09-11T08:44:27.723Z,24.64
2018-09-11T08:47:03.199Z,24.45
2018-09-11T08:49:44.847Z,24.18
2018-09-11T08:52:12.279Z,24.23
2018-09-11T08:54:39.590Z,24.09
2018-09-11T08:57:06.886Z,24.25
2018-09-11T08:59:34.416Z,24.38
2018-09-11T09:02:01.795Z,24.39
2018-09-11T09:04:29.110Z,24.72
2018-09-11T09:06:56.578Z,25.18
2018-09-11T09:09:30.721Z,25.30
2018-09-11T09:11:58.192Z,25.46
2018-09-11T09:14:25.559Z,25.73
2018-09-11T09:16:52.951Z,25.73
2018-09-11T09:19:20.319Z,25.38
2018-09-11T09:21:47.719Z,25.42
2018-09-11T09:24:15.821Z,25.38
2018-09-11T09:26:43.208Z,25.32
2018-09-11T09:29:10.610Z,25.36
2018-09-11T09:31:38.021Z,25.75
2018-09-11T09:34:05.499Z,25.97
2018-09-11T09:36:32.959Z,25.82
2018-09-11T09:39:00.275Z,25.12
2018-09-11T09:41:28.334Z,24.60
2018-09-11T09:43:55.677Z,24.29
2018-09-11T09:46:23.056Z,24.26
2018-09-11T09:48:50.399Z,24.19
2018-09-11T09:51:17.920Z,23.93
2018-09-11T09:53:45.318Z,24.06
2018-09-11T09:56:12.746Z,24.20
2018-09-11T09:58:40.128Z,24.29
2018-09-11T10:01:13.093Z,24.66
2018-09-11T10:03:40.407Z,24.73
2018-09-11T10:06:22.283Z,24.95
2018-09-11T10:09:04.091Z,25.28
2018-09-11T10:11:32.070Z,25.72
2018-09-11T10:13:59.429Z,25.53
2018-09-11T10:16:27.212Z,25.78
2018-09-11T10:18:54.528Z,26.03
2018-09-11T10:21:21.918Z,26.12
2018-09-11T10:23:49.289Z,25.89
2018-09-11T10:26:17.268Z,26.23
2018-09-11T10:28:44.650Z,26.30
2018-09-11T10:31:13.527Z,26.43
2018-09-11T10:33:41.592Z,26.64
2018-09-11T10:36:08.971Z,27.03
2018-09-11T10:38:36.398Z,27.14
2018-09-11T10:41:03.742Z,27.13
2018-09-11T10:43:31.094Z,26.94
2018-09-11T10:45:58.459Z,27.19
2018-09-11T10:48:25.801Z,27.48
2018-09-11T10:50:53.087Z,26.86
2018-09-11T10:53:21.125Z,26.66
2018-09-11T10:55:48.412Z,26.60
2018-09-11T10:58:17.235Z,26.51
2018-09-11T11:00:44.650Z,26.63
2018-09-11T11:03:12.108Z,26.96
2018-09-11T11:05:39.436Z,27.09
2018-09-11T11:08:06.826Z,26.99
2018-09-11T11:10:34.221Z,27.29
2018-09-11T11:13:02.190Z,27.65
2018-09-11T11:15:30.728Z,27.65
2018-09-11T11:17:58.304Z,28.11
2018-09-11T11:20:25.728Z,28.29
2018-09-11T11:22:53.094Z,28.31
2018-09-11T11:25:20.491Z,28.39
2018-09-11T11:27:47.853Z,28.21
2018-09-11T11:30:15.986Z,28.12
2018-09-11T11:32:43.357Z,28.13
2018-09-11T11:35:10.704Z,28.01
2018-09-11T11:37:38.089Z,28.04
2018-09-11T11:40:05.652Z,27.86
2018-09-11T11:42:33.067Z,27.57
2018-09-11T11:45:00.536Z,27.64
2018-09-11T11:47:28.747Z,27.59
2018-09-11T11:49:56.153Z,27.67
2018-09-11T11:52:24.143Z,27.50
2018-09-11T11:54:51.594Z,27.35
2018-09-11T11:57:18.930Z,27.43
2018-09-11T11:59:46.324Z,27.59
2018-09-11T12:02:13.720Z,27.42
2018-09-11T12:04:43.870Z,27.00
2018-09-11T12:07:11.495Z,27.07
2018-09-11T12:09:38.926Z,27.39
2018-09-11T12:12:06.330Z,27.89
2018-09-11T12:14:33.868Z,28.00
2018-09-11T12:17:01.243Z,27.95
2018-09-11T12:19:28.596Z,27.97
2018-09-11T12:21:55.937Z,27.85
2018-09-11T12:24:23.286Z,27.63
2018-09-11T12:26:50.652Z,27.60
2018-09-11T12:29:17.978Z,27.51
2018-09-11T12:31:45.356Z,27.90
2018-09-11T12:34:12.772Z,27.98
2018-09-11T12:36:40.068Z,28.29
2018-09-11T12:39:08.101Z,28.47
2018-09-11T12:41:36.080Z,28.66
2018-09-11T12:44:03.721Z,28.70
2018-09-11T12:46:31.611Z,28.67
2018-09-11T12:48:58.447Z,28.35
2018-09-11T12:51:25.796Z,28.03
2018-09-11T12:53:53.143Z,28.34
2018-09-11T12:56:20.576Z,28.74
2018-09-11T12:58:47.969Z,28.56
2018-09-11T13:01:15.460Z,28.42
2018-09-11T13:03:42.789Z,28.28
2018-09-11T13:06:10.168Z,28.30
2018-09-11T13:08:37.599Z,28.35
2018-09-11T13:11:04.953Z,28.29
2018-09-11T13:13:32.351Z,28.24
2018-09-11T13:15:59.725Z,28.22
2018-09-11T13:18:27.128Z,28.11
2018-09-11T13:20:54.528Z,28.06
2018-09-11T13:23:21.925Z,28.26
2018-09-11T13:25:49.271Z,28.47
2018-09-11T13:28:16.693Z,28.45
2018-09-11T13:30:44.037Z,28.29
2018-09-11T13:33:11.375Z,28.16
2018-09-11T13:35:38.883Z,27.97
2018-09-11T13:38:06.811Z,28.19
2018-09-11T13:40:34.156Z,28.32
2018-09-11T13:43:01.650Z,28.53
2018-09-11T13:45:29.233Z,28.50
2018-09-11T13:47:56.721Z,28.52
2018-09-11T13:50:24.072Z,28.58
2018-09-11T13:52:51.588Z,28.44
2018-09-11T13:55:19.082Z,28.42
2018-09-11T13:57:46.609Z,28.11
2018-09-11T14:00:14.287Z,27.99
2018-09-11T14:02:41.801Z,27.92
2018-09-11T14:05:09.467Z,27.94
2018-09-11T14:07:37.044Z,28.12
2018-09-11T14:10:04.569Z,28.15
2018-09-11T14:12:31.970Z,28.08
2018-09-11T14:14:59.496Z,27.91
2018-09-11T14:17:27.691Z,28.03
2018-09-11T14:19:55.259Z,28.19
2018-09-11T14:22:22.986Z,28.21
2018-09-11T14:24:50.443Z,28.18
2018-09-11T14:27:18.098Z,27.99
2018-09-11T14:29:45.920Z,27.80
2018-09-11T14:32:13.338Z,27.82
2018-09-11T14:34:41.134Z,27.80
2018-09-11T14:37:08.558Z,27.90
2018-09-11T14:39:35.900Z,27.97
2018-09-11T14:42:03.297Z,27.85
2018-09-11T14:44:30.722Z,27.84
2018-09-11T14:46:58.771Z,27.76
2018-09-11T14:49:26.083Z,27.73
2018-09-11T14:51:53.516Z,27.71
2018-09-11T14:54:21.734Z,27.76
2018-09-11T14:56:49.195Z,27.64
2018-09-11T14:59:16.578Z,27.65
2018-09-11T15:01:43.938Z,27.71
2018-09-11T15:04:11.452Z,27.59
2018-09-11T15:06:38.845Z,27.58
2018-09-11T15:09:15.694Z,27.36
2018-09-11T15:11:43.035Z,27.33
2018-09-11T15:14:10.505Z,27.30
2018-09-11T15:16:38.297Z,27.27
2018-09-11T15:19:06.540Z,27.17
2018-09-11T15:24:08.207Z,27.13
2018-09-11T15:26:35.773Z,27.10
2018-09-11T15:29:03.438Z,27.08
2018-09-11T15:31:30.836Z,27.06
2018-09-11T15:33:58.425Z,27.01
2018-09-11T15:36:25.848Z,26.97
2018-09-11T15:38:53.243Z,26.91
2018-09-11T15:41:20.985Z,26.81
2018-09-11T15:43:48.488Z,26.73
2018-09-11T15:46:16.978Z,26.66
2018-09-11T15:48:44.344Z,26.61
2018-09-11T15:51:13.059Z,26.58
2018-09-11T15:53:40.400Z,26.54
2018-09-11T15:56:07.907Z,26.57
2018-09-11T15:58:35.918Z,26.56
2018-09-11T16:01:04.095Z,26.49
2018-09-11T16:03:31.458Z,26.40
2018-09-11T16:05:58.898Z,26.34
2018-09-11T16:08:26.205Z,26.27
2018-09-11T16:11:06.691Z,26.23
2018-09-11T16:13:34.079Z,26.16
2018-09-11T16:16:01.409Z,26.11
2018-09-11T16:18:28.727Z,26.14
2018-09-11T16:20:56.380Z,26.08
2018-09-11T16:23:23.743Z,26.03
2018-09-11T16:25:51.219Z,25.97
2018-09-11T16:28:18.616Z,25.92
2018-09-11T16:30:46.019Z,25.86
2018-09-11T16:33:13.353Z,25.82
2018-09-11T16:35:40.731Z,25.79
2018-09-11T16:38:08.322Z,25.72
2018-09-11T16:40:35.585Z,25.69
2018-09-11T16:43:03.105Z,25.62
2018-09-11T16:45:30.522Z,25.60
2018-09-11T16:48:00.137Z,25.52
2018-09-11T16:50:27.539Z,25.46
2018-09-11T16:52:54.895Z,25.40
2018-09-11T16:55:22.275Z,25.32
2018-09-11T16:57:49.926Z,25.21
2018-09-11T17:00:17.281Z,25.16
2018-09-11T17:02:44.737Z,25.06
2018-09-11T17:05:12.713Z,24.93
2018-09-11T17:07:44.695Z,24.86
2018-09-11T17:10:28.305Z,24.74
2018-09-11T17:12:55.686Z,24.69
2018-09-11T17:15:24.570Z,24.63
2018-09-11T17:17:53.123Z,24.55
2018-09-11T17:20:21.462Z,24.42
2018-09-11T17:22:52.129Z,24.36
2018-09-11T17:25:21.094Z,24.28
2018-09-11T17:27:48.767Z,24.22
2018-09-11T17:30:16.338Z,24.19
2018-09-11T17:32:44.589Z,24.16
2018-09-11T17:35:13.016Z,24.08
2018-09-11T17:37:41.220Z,23.95
2018-09-11T17:40:12.387Z,23.83
2018-09-11T17:42:40.226Z,23.76
2018-09-11T17:45:23.425Z,23.73
2018-09-11T17:47:51.667Z,23.67
2018-09-11T17:50:19.358Z,23.56
2018-09-11T17:52:46.916Z,23.46
2018-09-11T17:55:14.373Z,23.35
2018-09-11T17:57:43.309Z,23.27
2018-09-11T18:00:12.764Z,23.19
2018-09-11T18:02:40.352Z,23.14
2018-09-11T18:05:07.684Z,23.09
2018-09-11T18:07:35.070Z,23.03
2018-09-11T18:10:02.361Z,23.00
2018-09-11T18:12:30.167Z,22.85
2018-09-11T18:14:58.655Z,22.69
2018-09-11T18:17:26.096Z,22.53
2018-09-11T18:19:53.525Z,22.41
2018-09-11T18:22:23.593Z,22.29
2018-09-11T18:24:52.288Z,22.18
2018-09-11T18:27:19.951Z,22.05
2018-09-11T18:29:47.297Z,21.98
2018-09-11T18:32:14.688Z,21.92
2018-09-11T18:34:42.195Z,21.91
2018-09-11T18:37:09.654Z,21.95
2018-09-11T18:39:37.074Z,21.97
2018-09-11T18:42:08.935Z,21.89
2018-09-11T18:44:37.497Z,21.95
2018-09-11T18:47:05.371Z,21.89
2018-09-11T18:49:36.767Z,21.87
2018-09-11T18:52:04.786Z,21.82
2018-09-11T18:54:32.651Z,21.73
2018-09-11T18:57:00.688Z,21.62
2018-09-11T18:59:28.385Z,21.50
2018-09-11T19:01:55.845Z,21.43
2018-09-11T19:04:23.659Z,21.38
2018-09-11T19:06:51.393Z,21.35
2018-09-11T19:09:18.821Z,21.31
2018-09-11T19:11:46.691Z,21.23
2018-09-11T19:14:14.071Z,21.17
2018-09-11T19:16:41.710Z,21.15
2018-09-11T19:19:10.057Z,21.12
2018-09-11T19:21:38.379Z,21.05
2018-09-11T19:24:05.809Z,21.00
2018-09-11T19:26:33.181Z,20.99
2018-09-11T19:29:00.597Z,20.97
2018-09-11T19:31:28.136Z,20.92
2018-09-11T19:33:55.754Z,20.85
2018-09-11T19:36:23.578Z,20.83
2018-09-11T19:38:51.058Z,20.85
2018-09-11T19:41:18.770Z,20.85
2018-09-11T19:43:46.394Z,20.87
2018-09-11T19:46:14.183Z,20.82
2018-09-11T19:48:41.906Z,20.80
2018-09-11T19:51:09.594Z,20.81
2018-09-11T19:53:37.774Z,20.79
2018-09-11T19:56:06.039Z,20.77
2018-09-11T19:58:33.358Z,20.78
2018-09-11T20:01:01.030Z,20.81
2018-09-11T20:03:29.053Z,20.92
2018-09-11T20:05:56.769Z,20.95
2018-09-11T20:08:25.563Z,20.93
2018-09-11T20:10:53.155Z,20.90
2018-09-11T20:13:20.576Z,20.87
2018-09-11T20:15:48.119Z,20.84
2018-09-11T20:18:15.566Z,20.80
2018-09-11T20:20:43.476Z,20.72
2018-09-11T20:23:11.398Z,20.68
2018-09-11T20:25:38.623Z,20.64
2018-09-11T20:28:06.379Z,20.64
2018-09-11T20:30:33.677Z,20.69
2018-09-11T20:33:00.941Z,20.65
2018-09-11T20:35:28.180Z,20.63
2018-09-11T20:37:55.781Z,20.57
2018-09-11T20:40:23.023Z,20.57
2018-09-11T20:42:51.886Z,20.56
2018-09-11T20:45:19.185Z,20.56
2018-09-11T20:47:46.429Z,20.51
2018-09-11T20:50:13.688Z,20.49
2018-09-11T20:52:41.217Z,20.47
2018-09-11T20:55:08.537Z,20.46
2018-09-11T20:57:36.328Z,20.39
2018-09-11T21:00:03.739Z,20.36
2018-09-11T21:02:30.970Z,20.28
2018-09-11T21:04:58.199Z,20.21
2018-09-11T21:07:25.535Z,20.21
2018-09-11T21:09:52.798Z,20.19
2018-09-11T21:12:20.079Z,20.21
2018-09-11T21:14:47.363Z,20.23
2018-09-11T21:17:14.644Z,20.24
2018-09-11T21:19:41.949Z,20.27
2018-09-11T21:22:09.221Z,20.23
2018-09-11T21:24:36.516Z,20.24
2018-09-11T21:27:03.771Z,20.18
2018-09-11T21:29:36.830Z,20.16
2018-09-11T21:32:13.144Z,20.17
2018-09-11T21:34:40.412Z,20.12
2018-09-11T21:37:07.664Z,20.11
2018-09-11T21:39:34.893Z,20.09
2018-09-11T21:42:02.130Z,20.06
2018-09-11T21:44:29.407Z,20.07
2018-09-11T21:46:56.650Z,20.06
2018-09-11T21:49:23.992Z,20.03
2018-09-11T21:51:51.596Z,20.00
2018-09-11T21:54:18.847Z,20.03
2018-09-11T21:56:46.093Z,20.02
2018-09-11T21:59:13.350Z,20.00
2018-09-11T22:01:43.490Z,19.95
2018-09-11T22:04:10.767Z,19.95
2018-09-11T22:06:38.751Z,19.93
2018-09-11T22:09:22.488Z,19.94
2018-09-11T22:11:49.728Z,19.90
2018-09-11T22:14:17.015Z,19.88
2018-09-11T22:16:44.228Z,19.85
2018-09-11T22:19:11.600Z,19.86
2018-09-11T22:21:38.835Z,19.82
2018-09-11T22:24:06.126Z,19.83
2018-09-11T22:26:33.920Z,19.84
2018-09-11T22:29:01.183Z,19.85
2018-09-11T22:31:28.716Z,19.81
2018-09-11T22:33:56.028Z,19.80
2018-09-11T22:36:23.535Z,19.75
2018-09-11T22:38:50.803Z,19.73
2018-09-11T22:41:18.072Z,19.69
2018-09-11T22:43:45.349Z,19.66
2018-09-11T22:46:12.648Z,19.61
2018-09-11T22:48:39.960Z,19.62
2018-09-11T22:51:07.332Z,19.62
2018-09-11T22:53:34.699Z,19.62
2018-09-11T22:56:01.956Z,19.56
2018-09-11T22:58:29.457Z,19.54
2018-09-11T23:00:56.769Z,19.51
2018-09-11T23:03:24.012Z,19.50
2018-09-11T23:05:51.307Z,19.56
2018-09-11T23:08:18.713Z,19.62
2018-09-11T23:10:45.988Z,19.66
2018-09-11T23:13:13.250Z,19.64
2018-09-11T23:15:40.544Z,19.61
2018-09-11T23:18:07.979Z,19.61
2018-09-11T23:20:35.278Z,19.57
2018-09-11T23:23:02.567Z,19.61
2018-09-11T23:25:29.864Z,19.59
2018-09-11T23:27:57.116Z,19.60
2018-09-11T23:30:24.363Z,19.58
2018-09-11T23:32:51.617Z,19.62
2018-09-11T23:35:18.864Z,19.58
2018-09-11T23:37:46.118Z,19.63
2018-09-11T23:40:13.547Z,19.67
2018-09-11T23:42:40.852Z,19.66
2018-09-11T23:45:08.138Z,19.67
2018-09-11T23:47:35.367Z,19.71
2018-09-11T23:50:02.659Z,19.71
2018-09-11T23:52:29.889Z,19.60
2018-09-11T23:54:57.179Z,19.52
2018-09-11T23:57:24.445Z,19.52
2018-09-11T23:59:51.740Z,19.44
